Time;durP1;ratioP1;P1;durP2;ratioP2;P2;SDS_P1;SDS_P2;PMS_P1;PMS_P2;Temp;Humidity;BMP_temperature;BMP_pressure;BME280_temperature;BME280_humidity;BME280_pressure;Samples;Min_cycle;Max_cycle;Signal;HPM_P1;HPM_P2
2023/06/26 00:02:13;;;;;;;3.55;2.47;;;;;;;16.69;69.41;100579.41;5045096;28;20056;-60
2023/06/26 00:04:38;;;;;;;6.10;2.45;;;;;;;16.73;69.22;100587.13;5043873;28;20017;-60
2023/06/26 00:07:05;;;;;;;3.38;2.00;;;;;;;16.78;69.01;100583.50;5045031;28;20026;-60
2023/06/26 00:09:30;;;;;;;4.88;2.63;;;;;;;16.77;69.34;100577.41;5044874;28;20029;-59
2023/06/26 00:11:55;;;;;;;3.65;2.33;;;;;;;16.79;69.23;100582.63;5044976;28;20079;-60
2023/06/26 00:14:21;;;;;;;1.95;1.42;;;;;;;16.78;69.29;100576.50;5044413;28;20064;-60
2023/06/26 00:16:49;;;;;;;3.47;1.85;;;;;;;16.86;69.25;100584.13;5044360;28;20033;-60
2023/06/26 00:19:15;;;;;;;7.25;2.42;;;;;;;16.88;69.07;100574.44;5044773;28;20030;-60
2023/06/26 00:21:40;;;;;;;2.67;1.83;;;;;;;16.88;69.37;100577.06;5044827;28;20044;-60
2023/06/26 00:24:06;;;;;;;2.50;1.83;;;;;;;16.89;69.90;100572.66;5042961;28;20116;-59
2023/06/26 00:26:31;;;;;;;3.50;2.17;;;;;;;16.88;70.01;100584.06;5044824;28;20453;-60
2023/06/26 00:28:56;;;;;;;9.32;1.88;;;;;;;16.87;70.19;100577.13;5044514;28;20017;-60
2023/06/26 00:31:22;;;;;;;2.58;2.00;;;;;;;16.85;70.61;100571.94;5044522;28;20028;-60
2023/06/26 00:33:47;;;;;;;2.50;1.92;;;;;;;16.83;71.49;100577.22;5003847;28;1169723;-59
2023/06/26 00:36:13;;;;;;;4.35;2.70;;;;;;;16.82;72.08;100574.66;5045430;28;20029;-60
2023/06/26 00:38:39;;;;;;;4.22;2.13;;;;;;;16.79;72.59;100565.09;5045229;28;20044;-59
2023/06/26 00:41:05;;;;;;;3.65;2.08;;;;;;;16.78;72.70;100567.78;5045299;28;20038;-59
2023/06/26 00:43:30;;;;;;;1.85;1.50;;;;;;;16.80;72.95;100560.72;5045167;28;20036;-60
2023/06/26 00:45:55;;;;;;;2.65;1.88;;;;;;;16.76;72.86;100551.25;5044908;28;20389;-60
2023/06/26 00:48:21;;;;;;;3.03;1.70;;;;;;;16.82;72.55;100557.13;5045241;28;20389;-59
2023/06/26 00:50:47;;;;;;;3.28;2.17;;;;;;;16.87;71.97;100550.91;5045144;28;20125;-59
2023/06/26 00:53:12;;;;;;;3.45;2.40;;;;;;;16.87;72.26;100543.03;5044982;28;20028;-59
2023/06/26 00:55:38;;;;;;;5.03;2.22;;;;;;;16.94;72.87;100553.28;5027266;28;20025;-59
2023/06/26 00:58:03;;;;;;;2.25;1.65;;;;;;;16.96;73.72;100558.47;5044942;28;20036;-60
2023/06/26 01:00:29;;;;;;;2.53;1.98;;;;;;;16.94;74.16;100552.41;5044811;28;20032;-60
2023/06/26 01:02:58;;;;;;;2.83;2.17;;;;;;;16.92;74.43;100555.06;5045106;28;20035;-59
2023/06/26 01:05:25;;;;;;;2.95;1.92;;;;;;;16.88;74.33;100545.59;5044815;28;20029;-59
2023/06/26 01:07:50;;;;;;;2.20;1.60;;;;;;;16.85;74.19;100538.69;5044930;28;20139;-59
2023/06/26 01:10:17;;;;;;;3.83;2.08;;;;;;;16.90;74.76;100550.81;5044786;28;20036;-59
2023/06/26 01:12:43;;;;;;;3.13;1.85;;;;;;;16.89;74.50;100547.31;5044838;28;20022;-60
2023/06/26 01:15:09;;;;;;;3.28;2.10;;;;;;;16.88;74.39;100542.13;5044595;28;20100;-59
2023/06/26 01:17:36;;;;;;;8.60;1.95;;;;;;;16.92;74.42;100544.59;5044753;28;20030;-59
2023/06/26 01:20:06;;;;;;;2.90;2.03;;;;;;;16.92;74.04;100541.09;5044783;28;20361;-60
2023/06/26 01:22:52;;;;;;;3.92;2.20;;;;;;;16.90;73.82;100538.53;5044884;28;20076;-59
2023/06/26 01:25:29;;;;;;;3.85;2.33;;;;;;;16.85;73.49;100537.84;5013697;28;20041;-59
2023/06/26 01:27:56;;;;;;;4.13;2.65;;;;;;;16.78;73.25;100523.22;5046773;28;20105;-60
2023/06/26 01:30:22;;;;;;;5.88;2.20;;;;;;;16.73;72.94;100534.72;5048623;28;20025;-59
2023/06/26 01:32:48;;;;;;;3.85;2.17;;;;;;;16.65;72.73;100530.59;5048923;28;20021;-59
2023/06/26 01:35:15;;;;;;;7.88;1.77;;;;;;;16.54;72.71;100531.81;5048493;28;20045;-59
2023/06/26 01:37:40;;;;;;;3.35;2.20;;;;;;;16.49;72.64;100525.84;5048678;28;20182;-60
2023/06/26 01:40:06;;;;;;;5.20;2.00;;;;;;;16.43;72.84;100526.03;5048644;28;20041;-59
2023/06/26 01:42:35;;;;;;;2.70;1.90;;;;;;;16.37;72.42;100523.63;5048662;28;20025;-61
2023/06/26 01:45:14;;;;;;;3.42;2.05;;;;;;;16.34;72.42;100519.34;5030497;28;20076;-59
2023/06/26 01:47:46;;;;;;;4.28;2.40;;;;;;;16.22;72.40;100499.59;5048314;28;20081;-60
2023/06/26 01:50:17;;;;;;;2.33;1.55;;;;;;;16.25;72.31;100516.97;5048424;28;20030;-60
2023/06/26 01:53:10;;;;;;;2.90;2.40;;;;;;;16.20;72.50;100511.88;5048517;28;20044;-59
2023/06/26 01:55:41;;;;;;;4.50;2.58;;;;;;;16.14;72.31;100504.22;5048371;28;20083;-60
2023/06/26 01:58:08;;;;;;;4.60;2.55;;;;;;;16.14;72.49;100518.19;5048303;28;20026;-60
2023/06/26 02:00:35;;;;;;;2.25;1.83;;;;;;;16.09;72.39;100504.34;5048099;28;20052;-61
2023/06/26 02:03:01;;;;;;;3.38;1.88;;;;;;;16.08;72.87;100503.53;5046878;28;20120;-60
2023/06/26 02:05:26;;;;;;;2.80;1.90;;;;;;;16.05;73.06;100508.84;5048089;28;20060;-61
2023/06/26 02:07:52;;;;;;;2.58;1.90;;;;;;;16.06;74.66;100501.81;5048060;28;20018;-60
2023/06/26 02:10:17;;;;;;;2.88;1.92;;;;;;;16.02;74.89;100500.22;5048100;28;20061;-60
2023/06/26 02:12:43;;;;;;;3.70;2.33;;;;;;;16.02;75.50;100497.59;5048213;28;20030;-59
2023/06/26 02:15:09;;;;;;;2.47;1.73;;;;;;;16.08;76.06;100494.78;5047744;28;20499;-59
2023/06/26 02:17:34;;;;;;;2.42;1.63;;;;;;;16.19;77.21;100492.72;5047878;28;20033;-59
2023/06/26 02:20:00;;;;;;;2.60;1.58;;;;;;;16.32;77.70;100490.56;5047716;28;20041;-59
2023/06/26 02:22:25;;;;;;;3.53;1.92;;;;;;;16.46;78.20;100489.25;5047863;28;20041;-60
2023/06/26 02:24:51;;;;;;;2.83;1.88;;;;;;;16.62;78.07;100488.75;5047324;28;20025;-60
2023/06/26 02:27:16;;;;;;;2.75;1.70;;;;;;;16.72;78.21;100492.81;5047821;28;20032;-60
2023/06/26 02:29:42;;;;;;;2.65;1.90;;;;;;;16.83;78.05;100480.22;5047520;28;20052;-59
2023/06/26 02:32:08;;;;;;;1.92;1.40;;;;;;;16.91;78.23;100476.47;5047876;28;20045;-60
2023/06/26 02:34:35;;;;;;;2.42;1.83;;;;;;;16.95;78.21;100484.16;5047469;28;20048;-59
2023/06/26 02:37:00;;;;;;;2.67;1.65;;;;;;;16.88;78.09;100474.81;5047488;28;20040;-60
2023/06/26 02:39:26;;;;;;;3.35;2.28;;;;;;;16.74;78.58;100472.66;5047150;28;20021;-59
2023/06/26 02:41:52;;;;;;;2.97;2.05;;;;;;;16.68;78.96;100470.22;5047536;28;20068;-60
2023/06/26 02:44:18;;;;;;;12.80;2.55;;;;;;;16.51;79.53;100465.53;5047506;28;20029;-60
2023/06/26 02:46:43;;;;;;;3.88;1.90;;;;;;;16.38;79.74;100475.53;5047120;28;20033;-60
2023/06/26 02:49:09;;;;;;;2.28;1.92;;;;;;;16.33;80.51;100466.09;5047191;28;20021;-59
2023/06/26 02:51:34;;;;;;;3.95;2.50;;;;;;;16.28;80.77;100465.34;5047320;28;20029;-59
2023/06/26 02:54:01;;;;;;;3.97;1.65;;;;;;;16.23;81.29;100462.88;5047184;28;20029;-60
2023/06/26 02:56:29;;;;;;;2.47;1.80;;;;;;;16.27;81.30;100454.94;5047190;28;20076;-60
2023/06/26 02:58:56;;;;;;;1.90;1.58;;;;;;;16.37;81.12;100463.34;5046986;28;20048;-60
2023/06/26 03:01:21;;;;;;;4.13;1.70;;;;;;;16.45;81.27;100461.38;5045617;28;20029;-59
2023/06/26 03:03:47;;;;;;;3.28;1.75;;;;;;;16.58;81.27;100465.28;5047158;28;20025;-60
2023/06/26 03:06:13;;;;;;;5.10;1.65;;;;;;;16.68;80.73;100452.72;5045732;28;20116;-60
2023/06/26 03:08:39;;;;;;;3.20;2.20;;;;;;;16.80;80.44;100456.72;5047035;28;20022;-60
2023/06/26 03:11:05;;;;;;;3.38;2.53;;;;;;;16.87;80.23;100446.03;5046967;28;20021;-59
2023/06/26 03:13:32;;;;;;;2.60;1.75;;;;;;;17.15;80.02;100452.94;5047032;28;20126;-60
2023/06/26 03:15:57;;;;;;;3.83;2.22;;;;;;;17.32;79.71;100447.09;5046811;28;20028;-60
2023/06/26 03:18:23;;;;;;;3.47;1.55;;;;;;;17.60;79.71;100453.97;5046938;28;20017;-60
2023/06/26 03:20:48;;;;;;;3.08;1.45;;;;;;;17.87;78.79;100445.09;5046665;28;20028;-59
2023/06/26 03:23:14;;;;;;;2.90;2.17;;;;;;;17.99;77.84;100415.72;5046592;28;20030;-61
2023/06/26 03:25:39;;;;;;;3.30;1.52;;;;;;;18.44;76.87;100439.38;5045332;28;20157;-60
2023/06/26 03:28:04;;;;;;;3.08;1.55;;;;;;;18.77;76.63;100440.69;5046735;28;20025;-59
2023/06/26 03:30:30;;;;;;;3.15;1.55;;;;;;;19.11;75.49;100430.50;5046405;28;20053;-59
2023/06/26 03:32:56;;;;;;;2.15;1.40;;;;;;;19.44;74.41;100427.31;5046626;28;20239;-59
2023/06/26 03:35:22;;;;;;;1.55;1.23;;;;;;;19.78;73.57;100425.72;5046343;28;20099;-59
2023/06/26 03:37:48;;;;;;;2.00;1.60;;;;;;;20.11;71.58;100436.56;5046431;28;20030;-59
2023/06/26 03:40:14;;;;;;;2.10;1.60;;;;;;;20.34;70.29;100439.81;5046422;28;20028;-59
2023/06/26 03:42:39;;;;;;;1.85;1.42;;;;;;;20.49;68.91;100440.88;5046337;28;20025;-60
2023/06/26 03:45:05;;;;;;;3.08;1.73;;;;;;;20.65;68.67;100439.19;5045865;28;20060;-60
2023/06/26 03:47:31;;;;;;;2.25;1.40;;;;;;;20.88;67.82;100437.13;5046271;28;20021;-60
2023/06/26 03:49:56;;;;;;;3.00;1.30;;;;;;;21.09;67.07;100426.44;5045583;28;20039;-60
2023/06/26 03:52:22;;;;;;;1.98;1.50;;;;;;;21.34;65.71;100432.19;5046086;28;20034;-60
2023/06/26 03:54:48;;;;;;;2.58;1.65;;;;;;;21.58;63.49;100427.34;5046130;28;20156;-59
2023/06/26 03:57:14;;;;;;;2.58;1.58;;;;;;;21.58;62.68;100418.59;5044772;28;20025;-60
2023/06/26 03:59:39;;;;;;;1.88;1.27;;;;;;;21.57;62.89;100423.03;5045811;28;20044;-56
2023/06/26 04:02:05;;;;;;;1.65;1.38;;;;;;;;;;5045984;28;20052;-59
2023/06/26 04:04:30;;;;;;;3.97;1.98;;;;;;;21.90;62.25;100419.47;5045866;28;20483;-60
2023/06/26 04:06:57;;;;;;;1.75;1.42;;;;;;;22.19;61.96;100410.81;5045840;28;20032;-60
2023/06/26 04:09:22;;;;;;;2.13;1.52;;;;;;;22.44;61.21;100414.69;5045967;28;20081;-61
2023/06/26 04:11:47;;;;;;;2.28;1.60;;;;;;;22.47;59.13;100414.53;5045731;28;20048;-60
2023/06/26 04:14:13;;;;;;;2.20;1.80;;;;;;;22.42;58.91;100416.56;5045668;28;20030;-61
2023/06/26 04:16:38;;;;;;;2.97;1.67;;;;;;;22.41;58.35;100413.06;5045666;28;20025;-61
2023/06/26 04:19:04;;;;;;;1.65;1.30;;;;;;;22.49;58.42;100399.41;5045620;28;20026;-61
2023/06/26 04:21:30;;;;;;;2.85;2.17;;;;;;;22.52;57.66;100393.91;5045565;28;20081;-60
2023/06/26 04:23:56;;;;;;;2.60;1.63;;;;;;;22.66;56.84;100402.88;5045438;28;20032;-61
2023/06/26 04:26:21;;;;;;;2.65;1.77;;;;;;;22.71;56.79;100405.25;5045494;28;20021;-61
2023/06/26 04:28:46;;;;;;;1.65;1.30;;;;;;;22.85;56.84;100407.06;5045562;28;20032;-61
2023/06/26 04:31:12;;;;;;;2.17;1.77;;;;;;;22.92;56.85;100395.16;5045218;28;20021;-58
2023/06/26 04:33:37;;;;;;;2.63;1.45;;;;;;;23.07;56.66;100388.06;5045401;28;20033;-60
2023/06/26 04:36:04;;;;;;;2.45;1.50;;;;;;;23.35;56.97;100393.44;5045301;28;20038;-60
2023/06/26 04:38:30;;;;;;;1.65;1.10;;;;;;;23.71;56.49;100393.88;5045327;28;20429;-59
2023/06/26 04:40:56;;;;;;;1.85;1.10;;;;;;;24.14;56.22;100392.88;5045133;28;20029;-60
2023/06/26 04:43:21;;;;;;;1.45;1.20;;;;;;;24.49;55.17;100392.34;5045407;28;20064;-61
2023/06/26 04:45:47;;;;;;;2.45;1.23;;;;;;;24.97;55.67;100380.28;5045175;28;20165;-60
2023/06/26 04:48:13;;;;;;;5.10;1.65;;;;;;;25.44;54.94;100384.97;5045114;28;20052;-60
2023/06/26 04:50:38;;;;;;;2.90;1.65;;;;;;;25.77;54.29;100382.66;5044759;28;20033;-61
2023/06/26 04:53:03;;;;;;;1.52;1.27;;;;;;;26.13;54.17;100380.06;5045256;28;20109;-60
2023/06/26 04:55:30;;;;;;;1.80;1.40;;;;;;;26.59;54.50;100369.53;5045147;28;20052;-60
2023/06/26 04:57:55;;;;;;;1.63;0.98;;;;;;;26.87;53.80;100375.38;5045356;28;20025;-61
2023/06/26 05:00:21;;;;;;;2.75;1.67;;;;;;;26.83;53.62;100379.25;5043910;28;20110;-60
2023/06/26 05:02:46;;;;;;;4.07;1.15;;;;;;;26.79;52.90;100373.31;5044926;28;20555;-61
2023/06/26 05:05:12;;;;;;;2.58;1.52;;;;;;;27.03;53.32;100368.88;5045027;28;20033;-60
2023/06/26 05:07:42;;;;;;;1.88;1.50;;;;;;;27.21;52.36;100374.56;5045362;28;20086;-60
2023/06/26 05:10:07;;;;;;;1.98;1.38;;;;;;;27.27;50.83;100368.72;5044919;28;20048;-60
2023/06/26 05:12:33;;;;;;;2.80;1.67;;;;;;;27.52;50.45;100369.44;5045130;28;20030;-61
2023/06/26 05:14:59;;;;;;;2.05;1.50;;;;;;;27.67;48.38;100356.69;5043288;28;20025;-60
2023/06/26 05:17:24;;;;;;;1.77;1.52;;;;;;;27.50;48.15;100357.19;5045026;28;20017;-60
2023/06/26 05:19:49;;;;;;;2.35;1.38;;;;;;;27.42;48.96;100353.31;5044864;28;20462;-61
2023/06/26 05:22:16;;;;;;;1.50;1.25;;;;;;;27.80;49.52;100358.31;5045004;28;20021;-60
2023/06/26 05:24:46;;;;;;;1.85;1.10;;;;;;;28.53;49.25;100362.13;5044625;28;20031;-60
2023/06/26 05:27:19;;;;;;;1.40;1.00;;;;;;;28.97;47.25;100348.56;5045030;28;20024;-60
2023/06/26 05:29:45;;;;;;;2.00;1.23;;;;;;;29.30;46.59;100349.22;5044601;28;20021;-61
2023/06/26 05:32:15;;;;;;;1.05;0.93;;;;;;;29.32;43.55;100346.41;5044902;28;20025;-62
2023/06/26 05:34:41;;;;;;;2.65;1.42;;;;;;;28.91;43.61;100349.94;5044551;28;20076;-62
2023/06/26 05:37:08;;;;;;;2.20;1.60;;;;;;;28.48;43.37;100342.97;5027090;28;20445;-62
2023/06/26 05:39:33;;;;;;;1.58;1.13;;;;;;;28.29;43.52;100345.34;5026893;28;20025;-62
2023/06/26 05:41:59;;;;;;;2.42;1.45;;;;;;;28.08;43.48;100334.69;5044749;28;20026;-61
2023/06/26 05:44:24;;;;;;;4.45;2.38;;;;;;;28.03;43.69;100334.22;5044948;28;20026;-61
2023/06/26 05:46:50;;;;;;;2.00;1.23;;;;;;;27.91;42.38;100336.94;5044735;28;20032;-62
2023/06/26 05:49:16;;;;;;;1.42;1.20;;;;;;;27.51;43.29;100335.72;5044750;28;20389;-62
2023/06/26 05:51:41;;;;;;;2.08;1.60;;;;;;;27.18;43.22;100330.34;5044841;28;20032;-62
2023/06/26 05:54:07;;;;;;;1.75;1.00;;;;;;;26.95;44.45;100335.66;5044702;28;20390;-62
2023/06/26 05:56:33;;;;;;;1.42;1.10;;;;;;;27.44;45.13;100334.53;5044536;28;20026;-62
2023/06/26 05:58:59;;;;;;;1.67;1.25;;;;;;;27.88;43.62;100331.88;5043532;28;20105;-62
2023/06/26 06:01:24;;;;;;;1.45;0.90;;;;;;;28.10;42.92;100340.72;5044523;28;20097;-62
2023/06/26 06:03:50;;;;;;;1.58;1.10;;;;;;;28.13;43.20;100343.13;5044810;28;20025;-62
2023/06/26 06:06:15;;;;;;;2.40;1.23;;;;;;;28.26;41.73;100328.78;5044665;28;20084;-62
2023/06/26 06:08:41;;;;;;;2.33;1.75;;;;;;;28.14;41.62;100328.84;5044852;28;20045;-62
2023/06/26 06:11:07;;;;;;;4.10;1.60;;;;;;;27.80;40.87;100331.66;5044709;28;20029;-61
2023/06/26 06:13:32;;;;;;;2.67;1.05;;;;;;;27.25;41.43;100329.84;5045709;28;20021;-62
2023/06/26 06:15:58;;;;;;;0.90;0.70;;;;;;;26.50;42.83;100325.88;5048045;28;20041;-62
2023/06/26 06:18:23;;;;;;;3.25;1.48;;;;;;;26.04;44.55;100323.06;5048262;28;20068;-62
2023/06/26 06:20:48;;;;;;;1.98;1.13;;;;;;;26.04;45.95;100330.22;5048093;28;20030;-62
2023/06/26 06:23:14;;;;;;;1.83;0.88;;;;;;;26.56;44.61;100330.72;5048167;28;20021;-63
2023/06/26 06:25:39;;;;;;;1.00;0.82;;;;;;;26.70;43.56;100318.13;5047938;28;20028;-62
2023/06/26 06:28:05;;;;;;;1.08;0.90;;;;;;;26.56;43.24;100313.88;5047907;28;20028;-62
2023/06/26 06:30:31;;;;;;;1.38;0.90;;;;;;;26.60;43.55;100315.31;5047709;28;20025;-61
2023/06/26 06:32:57;;;;;;;1.65;0.88;;;;;;;26.89;42.87;100320.19;5048088;28;20029;-61
2023/06/26 06:35:22;;;;;;;1.67;0.90;;;;;;;26.97;41.81;100311.56;5047545;28;20053;-61
2023/06/26 06:37:48;;;;;;;0.75;0.70;;;;;;;26.85;41.58;100308.09;5047915;28;20028;-63
2023/06/26 06:40:14;;;;;;;1.05;0.88;;;;;;;26.64;41.86;100302.63;5047793;28;20473;-62
2023/06/26 06:42:40;;;;;;;1.73;0.93;;;;;;;26.56;42.72;100297.91;5047891;28;20029;-61
2023/06/26 06:45:06;;;;;;;8.32;1.23;;;;;;;26.56;43.49;100303.25;5029694;28;20057;-62
2023/06/26 06:47:32;;;;;;;1.42;1.33;;;;;;;26.83;41.71;100291.38;5047935;28;20013;-62
2023/06/26 06:49:58;;;;;;;1.23;0.90;;;;;;;26.72;42.05;100302.88;5047633;28;20077;-63
2023/06/26 06:52:24;;;;;;;2.35;0.85;;;;;;;26.73;42.03;100301.91;5047746;28;20045;-62
2023/06/26 06:54:58;;;;;;;3.03;1.10;;;;;;;26.77;42.60;100300.72;5047609;28;20032;-62
2023/06/26 06:57:25;;;;;;;4.95;1.38;;;;;;;27.19;43.14;100291.25;5047521;28;20021;-61
2023/06/26 06:59:50;;;;;;;2.15;1.15;;;;;;;27.80;40.75;100294.31;5047055;28;20108;-61
2023/06/26 07:02:19;;;;;;;1.95;1.02;;;;;;;27.67;39.63;100282.00;5047465;28;20017;-62
2023/06/26 07:04:44;;;;;;;2.17;1.35;;;;;;;27.24;40.46;100285.53;5047431;28;20044;-62
2023/06/26 07:07:10;;;;;;;1.90;1.20;;;;;;;26.94;40.84;100275.38;5047586;28;20021;-61
2023/06/26 07:09:36;;;;;;;1.92;1.45;;;;;;;26.91;41.13;100282.78;5047202;28;20048;-63
2023/06/26 07:12:02;;;;;;;3.08;1.05;;;;;;;26.91;41.08;100275.63;5047377;28;20026;-62
2023/06/26 07:14:28;;;;;;;2.75;1.42;;;;;;;27.14;40.46;100272.94;5047296;28;20017;-62
2023/06/26 07:16:53;;;;;;;1.63;1.02;;;;;;;27.09;40.05;100281.31;5047080;28;20025;-62
2023/06/26 07:19:18;;;;;;;1.98;1.75;;;;;;;27.01;41.82;100275.78;5047298;28;20026;-62
2023/06/26 07:21:46;;;;;;;2.08;1.25;;;;;;;27.62;39.15;100273.50;5047193;28;20021;-62
2023/06/26 07:24:11;;;;;;;2.03;1.33;;;;;;;27.39;39.87;100278.94;5046780;28;20029;-62
2023/06/26 07:26:36;;;;;;;1.23;1.10;;;;;;;27.25;40.04;100276.56;5046479;28;20028;-62
2023/06/26 07:29:02;;;;;;;1.95;1.27;;;;;;;27.06;40.48;100278.06;5047036;28;20050;-62
2023/06/26 07:31:28;;;;;;;2.20;1.60;;;;;;;26.64;40.97;100263.56;5046843;28;20025;-63
2023/06/26 07:33:53;;;;;;;2.85;1.52;;;;;;;26.40;41.76;100264.53;5046693;28;20127;-62
2023/06/26 07:36:19;;;;;;;2.88;1.63;;;;;;;26.03;42.41;100273.50;5046915;28;20424;-62
2023/06/26 07:38:44;;;;;;;2.38;1.70;;;;;;;25.70;43.41;100259.97;5046839;28;20025;-63
2023/06/26 07:41:09;;;;;;;3.45;1.50;;;;;;;25.37;44.82;100272.13;5046684;28;20040;-62
2023/06/26 07:43:35;;;;;;;2.55;1.75;;;;;;;25.03;45.74;100251.53;5046805;28;20029;-61
2023/06/26 07:46:00;;;;;;;2.63;1.70;;;;;;;25.06;46.10;100258.44;5046376;28;20021;-62
2023/06/26 07:48:26;;;;;;;4.43;2.15;;;;;;;25.22;46.51;100260.81;5046601;28;20068;-62
2023/06/26 07:50:51;;;;;;;2.65;1.77;;;;;;;25.59;46.19;100246.63;5046464;28;20048;-62
2023/06/26 07:53:16;;;;;;;1.80;1.65;;;;;;;25.96;45.46;100245.69;5046636;28;20034;-62
2023/06/26 07:55:43;;;;;;;2.75;1.70;;;;;;;26.31;45.61;100236.78;5046285;28;20461;-62
2023/06/26 07:58:09;;;;;;;3.42;1.90;;;;;;;26.94;43.81;100234.56;5046541;28;20029;-62
2023/06/26 08:00:34;;;;;;;3.08;2.22;;;;;;;26.87;43.94;100242.22;5046234;28;20031;-62
2023/06/26 08:03:00;;;;;;;4.07;2.10;;;;;;;26.50;44.21;100239.84;5046374;28;20154;-61
2023/06/26 08:05:25;;;;;;;3.90;2.35;;;;;;;26.16;45.14;100237.97;5046098;28;20418;-61
2023/06/26 08:07:51;;;;;;;6.20;1.77;;;;;;;25.86;46.21;100240.22;5046291;28;20025;-62
2023/06/26 08:10:16;;;;;;;2.13;1.85;;;;;;;25.84;46.38;100234.16;5045978;28;20029;-63
2023/06/26 08:12:44;;;;;;;1.45;1.35;;;;;;;25.98;46.46;100225.97;5046209;28;20036;-62
2023/06/26 08:15:11;;;;;;;3.88;2.40;;;;;;;26.03;45.57;100225.63;5045854;28;20045;-61
2023/06/26 08:17:37;;;;;;;2.45;1.60;;;;;;;25.89;45.69;100226.69;5046073;28;20029;-62
2023/06/26 08:20:03;;;;;;;2.55;1.80;;;;;;;25.95;46.12;100220.03;5045891;28;20021;-63
2023/06/26 08:22:29;;;;;;;2.40;1.65;;;;;;;26.20;45.93;100213.66;5046134;28;20030;-63
2023/06/26 08:24:54;;;;;;;1.92;1.00;;;;;;;26.58;45.78;100208.97;5045829;28;20044;-61
2023/06/26 08:27:20;;;;;;;3.92;1.58;;;;;;;27.04;44.89;100208.06;5045902;28;20018;-62
2023/06/26 08:29:45;;;;;;;2.95;1.98;;;;;;;27.53;44.42;100196.97;5045857;28;20022;-62
2023/06/26 08:32:10;;;;;;;2.35;1.38;;;;;;;27.75;41.91;100197.88;5045671;28;20021;-63
2023/06/26 08:34:36;;;;;;;4.80;1.40;;;;;;;26.92;43.04;100194.75;5045600;28;20072;-60
2023/06/26 08:37:02;;;;;;;3.90;1.83;;;;;;;26.46;43.91;100186.00;5045198;28;20033;-62
2023/06/26 08:39:28;;;;;;;1.40;1.10;;;;;;;26.17;44.80;100184.66;5045722;28;20029;-63
2023/06/26 08:41:53;;;;;;;2.90;1.52;;;;;;;25.99;44.87;100168.31;5045709;28;20028;-62
2023/06/26 08:44:23;;;;;;;4.90;1.65;;;;;;;26.17;45.58;100168.69;5045866;28;20021;-62
2023/06/26 08:46:49;;;;;;;1.27;1.10;;;;;;;27.01;44.84;100160.38;5045139;28;20080;-62
2023/06/26 08:49:20;;;;;;;2.45;1.77;;;;;;;28.22;43.04;100168.06;5045719;28;20021;-62
2023/06/26 08:51:55;;;;;;;1.70;1.05;;;;;;;29.25;41.10;100160.84;5045512;28;20108;-62
2023/06/26 08:54:28;;;;;;;2.13;1.33;;;;;;;30.29;38.30;100161.03;5045585;28;20037;-62
2023/06/26 08:56:57;;;;;;;1.38;0.98;;;;;;;30.85;37.23;100155.63;5045425;28;20025;-62
2023/06/26 08:59:23;;;;;;;1.90;1.20;;;;;;;31.31;35.71;100148.50;5045604;28;20030;-62
2023/06/26 09:01:49;;;;;;;2.03;1.23;;;;;;;31.06;36.27;100149.13;5045252;28;20056;-62
2023/06/26 09:04:15;;;;;;;2.05;1.42;;;;;;;31.23;35.94;100141.25;5045469;28;20025;-62
2023/06/26 09:06:41;;;;;;;1.90;1.13;;;;;;;31.28;35.17;100144.28;5045265;28;20095;-62
2023/06/26 09:09:07;;;;;;;1.63;1.17;;;;;;;31.11;35.34;100148.66;5045383;28;20029;-62
2023/06/26 09:11:33;;;;;;;1.42;1.33;;;;;;;30.70;35.63;100135.72;5045281;28;20072;-63
2023/06/26 09:13:59;;;;;;;1.90;1.52;;;;;;;29.82;36.98;100133.31;5045279;28;20033;-62
2023/06/26 09:16:26;;;;;;;1.98;1.42;;;;;;;30.10;37.18;100130.66;5044989;28;20064;-62
2023/06/26 09:18:52;;;;;;;1.95;1.50;;;;;;;30.14;37.59;100120.50;5045142;28;20025;-62
2023/06/26 09:21:18;;;;;;;1.65;1.55;;;;;;;30.57;37.64;100123.53;5045180;28;20475;-63
2023/06/26 09:23:43;;;;;;;1.35;1.02;;;;;;;31.31;37.43;100122.53;5045320;28;20029;-62
2023/06/26 09:26:09;;;;;;;1.88;1.20;;;;;;;32.39;35.94;100108.84;5044912;28;20306;-62
2023/06/26 09:28:35;;;;;;;2.33;1.48;;;;;;;32.63;35.05;100097.34;5045297;28;20025;-63
2023/06/26 09:31:05;;;;;;;2.50;1.25;;;;;;;32.87;34.37;100097.53;5044856;28;20049;-62
2023/06/26 09:33:35;;;;;;;2.75;1.50;;;;;;;32.62;33.20;100084.91;5045095;28;20025;-62
2023/06/26 09:36:01;;;;;;;2.20;1.52;;;;;;;32.61;33.54;100085.91;5044674;28;20053;-62
2023/06/26 09:38:26;;;;;;;3.25;2.00;;;;;;;33.03;33.26;100083.25;5044990;28;20040;-63
2023/06/26 09:40:52;;;;;;;2.25;1.40;;;;;;;33.24;31.48;100089.97;5044960;28;20032;-63
2023/06/26 09:43:18;;;;;;;3.38;2.05;;;;;;;32.90;33.06;100083.75;5045165;28;20028;-62
2023/06/26 09:45:44;;;;;;;2.08;1.63;;;;;;;32.70;31.86;100075.19;5044794;28;20026;-63
2023/06/26 09:48:11;;;;;;;1.73;1.27;;;;;;;32.13;33.05;100073.03;5045766;28;20033;-63
2023/06/26 09:50:41;;;;;;;2.75;1.75;;;;;;;31.68;33.28;100058.06;5048941;28;20026;-63
2023/06/26 09:53:09;;;;;;;2.30;1.55;;;;;;;31.19;33.64;100064.78;5049068;28;20044;-62
2023/06/26 09:55:39;;;;;;;1.63;1.48;;;;;;;30.73;34.82;100063.91;5048474;28;20033;-63
2023/06/26 09:58:06;;;;;;;5.17;2.40;;;;;;;30.28;35.24;100042.41;5048948;28;20025;-63
2023/06/26 10:00:32;;;;;;;1.70;1.10;;;;;;;30.02;35.57;100048.44;5047193;28;20057;-63
2023/06/26 10:03:00;;;;;;;5.75;1.88;;;;;;;29.48;36.61;100046.41;5048687;28;20477;-63
2023/06/26 10:05:26;;;;;;;1.98;1.55;;;;;;;29.38;36.22;100035.72;5048562;28;20044;-63
2023/06/26 10:07:53;;;;;;;1.77;1.20;;;;;;;29.35;37.66;100041.38;5048713;28;20473;-61
2023/06/26 10:10:20;;;;;;;2.03;1.60;;;;;;;30.25;37.04;100042.72;5048419;28;20044;-62
2023/06/26 10:12:49;;;;;;;1.50;1.30;;;;;;;31.24;34.35;100044.56;5048410;28;20032;-62
2023/06/26 10:15:16;;;;;;;1.20;0.90;;;;;;;31.37;34.21;100044.16;5048201;28;20041;-62
2023/06/26 10:17:43;;;;;;;2.50;1.92;;;;;;;31.71;32.26;100031.75;5048576;28;20022;-63
2023/06/26 10:20:09;;;;;;;2.25;1.38;;;;;;;31.26;32.83;100044.41;5048290;28;20026;-64
2023/06/26 10:22:41;;;;;;;2.25;1.45;;;;;;;30.75;33.97;100053.06;5048476;28;20021;-64
2023/06/26 10:25:07;;;;;;;2.42;1.55;;;;;;;30.57;34.05;100047.69;5048231;28;20026;-63
2023/06/26 10:27:38;;;;;;;3.67;1.17;;;;;;;30.60;33.72;100040.19;5048267;28;20029;-64
2023/06/26 10:30:09;;;;;;;2.47;1.27;;;;;;;30.60;33.91;100040.19;5048062;28;20060;-62
2023/06/26 10:32:36;;;;;;;1.20;0.90;;;;;;;30.41;34.37;100030.47;5048317;28;20386;-63
2023/06/26 10:35:03;;;;;;;1.60;1.30;;;;;;;30.75;32.86;100042.34;5047735;28;20049;-62
2023/06/26 10:37:48;;;;;;;5.00;1.10;;;;;;;30.50;33.53;100034.06;5047929;28;20037;-62
2023/06/26 10:40:24;;;;;;;4.47;1.35;;;;;;;30.21;33.74;100032.47;5046423;28;20108;-62
2023/06/26 10:42:50;;;;;;;1.30;1.15;;;;;;;30.26;33.44;100017.63;5047836;28;20036;-61
2023/06/26 10:45:21;;;;;;;1.33;1.13;;;;;;;30.14;34.06;100030.34;5047540;28;20424;-61
2023/06/26 10:47:48;;;;;;;2.25;1.52;;;;;;;30.48;33.16;100033.41;5047830;28;20053;-62
2023/06/26 10:50:25;;;;;;;1.40;1.05;;;;;;;30.18;34.82;100028.19;5047678;28;20072;-62
2023/06/26 10:53:20;;;;;;;2.47;1.33;;;;;;;31.04;33.88;100017.09;5048077;28;20083;-62
2023/06/26 10:55:56;;;;;;;3.85;1.50;;;;;;;31.28;32.18;100008.38;5047623;28;20025;-63
2023/06/26 10:58:34;;;;;;;0.95;0.90;;;;;;;31.29;32.16;100009.22;5047575;28;20017;-63
2023/06/26 11:01:23;;;;;;;2.20;1.45;;;;;;;30.40;32.94;100012.75;5047186;28;20025;-63
2023/06/26 11:03:58;;;;;;;2.25;1.85;;;;;;;29.57;34.39;100007.22;5047738;28;20033;-62
2023/06/26 11:06:23;;;;;;;1.23;1.05;;;;;;;29.12;35.65;100016.81;5047331;28;20048;-63
2023/06/26 11:08:52;;;;;;;2.00;1.55;;;;;;;29.12;35.53;100009.66;5047544;28;20602;-63
2023/06/26 11:11:18;;;;;;;1.83;1.23;;;;;;;28.94;35.14;99996.16;5047402;28;20026;-63
2023/06/26 11:13:45;;;;;;;4.03;2.10;;;;;;;29.04;34.34;100013.03;5047489;28;20033;-62
2023/06/26 11:16:12;;;;;;;2.17;1.90;;;;;;;29.00;34.31;100011.63;5046986;28;20108;-63
2023/06/26 11:18:38;;;;;;;1.80;1.20;;;;;;;28.86;33.82;99998.69;5047084;28;20025;-63
2023/06/26 11:21:14;;;;;;;2.03;1.77;;;;;;;28.92;33.75;100012.31;5047064;28;20032;-62
2023/06/26 11:23:40;;;;;;;2.13;1.55;;;;;;;28.86;33.40;100015.56;5047519;28;20029;-63
2023/06/26 11:26:16;;;;;;;2.55;1.85;;;;;;;28.69;32.87;100015.28;5047108;28;20098;-63